Terminal Aerodrome Forecast
Issued by NWS Pendleton, OR

Home | Current Version | Previous Version | Text Only | Print | Product List | Glossary On
Versions: 1 2 3 4 5 6 7 8 9 10 11 12 13 14 15 16
000
FTUS46 KPDT 191120
TAFPDT
TAF
KPDT 191120Z 1912/2012 24008KT P6SM FEW250
     FM191700 28010G16KT P6SM FEW100
     FM200000 30009KT P6SM SKC
     FM200600 16007KT P6SM SKC=

USA.gov is the U.S. government's official web portal to all federal, state and local government web resources and services.